createdAt,value
2019-02-12T00:00:47.395Z,4.4
2019-02-12T00:01:47.625Z,4.36
2019-02-12T00:02:47.378Z,4.4
2019-02-12T00:03:47.590Z,4.34
2019-02-12T00:04:47.568Z,4.39
2019-02-12T00:05:47.591Z,4.36
2019-02-12T00:06:47.557Z,4.36
2019-02-12T00:07:47.516Z,4.42
2019-02-12T00:08:47.522Z,4.42
2019-02-12T00:09:47.463Z,4.37
2019-02-12T00:10:47.435Z,4.34
2019-02-12T00:11:47.228Z,4.34
2019-02-12T00:12:47.393Z,4.36
2019-02-12T00:13:47.386Z,4.42
2019-02-12T00:14:47.353Z,4.37
2019-02-12T00:15:47.592Z,4.36
2019-02-12T00:16:47.308Z,4.33
2019-02-12T00:17:47.325Z,4.4
2019-02-12T00:18:47.525Z,4.34
2019-02-12T00:19:47.512Z,4.32
2019-02-12T00:20:47.220Z,4.39
2019-02-12T00:21:47.203Z,4.34
2019-02-12T00:22:47.433Z,4.34
2019-02-12T00:23:47.411Z,4.28
2019-02-12T00:24:47.133Z,4.22
2019-02-12T00:25:47.115Z,4.21
2019-02-12T00:26:47.092Z,4.14
2019-02-12T00:27:48.476Z,4.15
2019-02-12T00:28:47.103Z,4.18
2019-02-12T00:29:47.028Z,4.18
2019-02-12T00:30:47.306Z,4.08
2019-02-12T00:31:47.237Z,4.07
2019-02-12T00:32:46.974Z,4.08
2019-02-12T00:33:47.206Z,3.98
2019-02-12T00:34:48.046Z,3.98
2019-02-12T00:35:46.654Z,3.96
2019-02-12T00:36:46.624Z,3.94
2019-02-12T00:37:46.610Z,3.89
2019-02-12T00:38:46.847Z,3.88
2019-02-12T00:39:46.822Z,3.88
2019-02-12T00:40:47.047Z,3.78
2019-02-12T00:41:47.025Z,3.76
2019-02-12T00:42:46.749Z,3.78
2019-02-12T00:43:46.989Z,3.76
2019-02-12T00:44:46.701Z,3.75
2019-02-12T00:45:46.426Z,3.65
2019-02-12T00:46:46.662Z,3.54
2019-02-12T00:47:46.903Z,3.54
2019-02-12T00:48:46.798Z,3.57
2019-02-12T00:49:46.849Z,3.6
2019-02-12T00:50:46.581Z,3.6
2019-02-12T00:51:46.810Z,3.57
2019-02-12T00:52:46.795Z,3.52
2019-02-12T00:53:46.776Z,3.47
2019-02-12T00:54:46.230Z,3.49
2019-02-12T00:55:46.470Z,3.47
2019-02-12T00:56:46.450Z,3.44
2019-02-12T00:57:46.425Z,3.44
2019-02-12T00:58:46.661Z,3.4
2019-02-12T00:59:46.381Z,3.44
2019-02-12T01:00:46.101Z,3.4
2019-02-12T01:01:46.419Z,3.42
2019-02-12T01:02:46.319Z,3.44
2019-02-12T01:03:46.554Z,3.44
2019-02-12T01:04:46.526Z,3.47
2019-02-12T01:05:46.503Z,3.39
2019-02-12T01:06:46.228Z,3.34
2019-02-12T01:07:45.948Z,3.39
2019-02-12T01:08:46.182Z,3.36
2019-02-12T01:09:46.414Z,3.4
2019-02-12T01:10:46.385Z,3.42
2019-02-12T01:11:46.111Z,3.21
2019-02-12T01:12:45.837Z,3.27
2019-02-12T01:13:46.073Z,3.23
2019-02-12T01:14:46.310Z,3.24
2019-02-12T01:15:46.298Z,3.27
2019-02-12T01:16:45.757Z,3.3
2019-02-12T01:17:46.239Z,3.27
2019-02-12T01:18:45.960Z,3.25
2019-02-12T01:19:46.197Z,3.16
2019-02-12T01:20:45.931Z,3.18
2019-02-12T01:21:45.901Z,3.23
2019-02-12T01:22:45.870Z,3.18
2019-02-12T01:23:45.847Z,3.16
2019-02-12T01:24:45.572Z,3.16
2019-02-12T01:25:46.055Z,3.13
2019-02-12T01:26:46.086Z,3.21
2019-02-12T01:27:45.719Z,3.06
2019-02-12T01:28:45.739Z,3.15
2019-02-12T01:29:45.975Z,3.16
2019-02-12T01:30:45.701Z,3.13
2019-02-12T01:31:45.690Z,3.12
2019-02-12T01:32:45.918Z,3.2
2019-02-12T01:33:45.901Z,3.13
2019-02-12T01:34:45.899Z,3.09
2019-02-12T01:35:45.591Z,3.13
2019-02-12T01:36:45.858Z,3.06
2019-02-12T01:37:45.544Z,3.1
2019-02-12T01:38:45.516Z,3.09
2019-02-12T01:39:45.756Z,2.98
2019-02-12T01:40:45.834Z,3.07
2019-02-12T01:41:45.709Z,3.09
2019-02-12T01:42:45.440Z,2.98
2019-02-12T01:43:45.154Z,3.05
2019-02-12T01:44:45.398Z,3.12
2019-02-12T01:45:45.362Z,3.09
2019-02-12T01:46:45.635Z,3.23
2019-02-12T01:47:45.575Z,3.15
2019-02-12T01:48:45.071Z,3.13
2019-02-12T01:49:45.594Z,3.2
2019-02-12T01:50:45.511Z,3.2
2019-02-12T01:51:45.491Z,3.28
2019-02-12T01:52:45.460Z,3.3
2019-02-12T01:53:45.441Z,3.25
2019-02-12T01:54:45.165Z,3.21
2019-02-12T01:55:45.393Z,3.27
2019-02-12T01:56:45.144Z,3.39
2019-02-12T01:57:45.107Z,3.27
2019-02-12T01:58:45.078Z,3.31
2019-02-12T01:59:45.313Z,3.43
2019-02-12T02:00:45.329Z,3.39
2019-02-12T02:01:44.755Z,3.31
2019-02-12T02:02:44.992Z,3.4
2019-02-12T02:03:45.243Z,3.39
2019-02-12T02:04:44.949Z,3.42
2019-02-12T02:05:44.920Z,3.43
2019-02-12T02:06:45.178Z,3.46
2019-02-12T02:07:45.133Z,3.39
2019-02-12T02:08:44.863Z,3.43
2019-02-12T02:09:44.833Z,3.44
2019-02-12T02:10:44.820Z,3.42
2019-02-12T02:11:44.538Z,3.44
2019-02-12T02:12:44.770Z,3.47
2019-02-12T02:13:45.014Z,3.5
2019-02-12T02:14:44.467Z,3.46
2019-02-12T02:15:44.506Z,3.47
2019-02-12T02:16:44.938Z,3.5
2019-02-12T02:17:44.657Z,3.52
2019-02-12T02:18:44.383Z,3.47
2019-02-12T02:19:44.870Z,3.53
2019-02-12T02:20:44.593Z,3.62
2019-02-12T02:21:49.070Z,3.6
2019-02-12T02:22:44.295Z,3.54
2019-02-12T02:23:44.787Z,3.62
2019-02-12T02:24:44.508Z,3.64
2019-02-12T02:25:44.742Z,3.64
2019-02-12T02:26:44.464Z,3.68
2019-02-12T02:27:44.193Z,3.67
2019-02-12T02:28:44.674Z,3.6
2019-02-12T02:29:44.647Z,3.65
2019-02-12T02:30:44.628Z,3.7
2019-02-12T02:31:44.612Z,3.65
2019-02-12T02:32:44.326Z,3.64
2019-02-12T02:33:44.565Z,3.68
2019-02-12T02:34:44.541Z,3.67
2019-02-12T02:35:44.535Z,3.64
2019-02-12T02:36:44.501Z,3.67
2019-02-12T02:37:44.224Z,3.68
2019-02-12T02:38:44.475Z,3.76
2019-02-12T02:39:44.428Z,3.64
2019-02-12T02:40:44.205Z,3.78
2019-02-12T02:41:44.143Z,3.76
2019-02-12T02:42:44.121Z,3.67
2019-02-12T02:43:44.357Z,3.61
2019-02-12T02:44:44.085Z,3.65
2019-02-12T02:45:44.144Z,3.64
2019-02-12T02:46:44.028Z,3.72
2019-02-12T02:47:44.258Z,3.76
2019-02-12T02:48:43.990Z,3.75
2019-02-12T02:49:44.220Z,3.72
2019-02-12T02:50:44.298Z,3.78
2019-02-12T02:51:53.504Z,3.79
2019-02-12T02:52:44.150Z,3.71
2019-02-12T02:53:44.163Z,3.76
2019-02-12T02:54:44.107Z,3.75
2019-02-12T02:55:44.122Z,3.75
2019-02-12T02:56:43.804Z,3.71
2019-02-12T02:57:44.042Z,3.76
2019-02-12T02:58:44.032Z,3.7
2019-02-12T02:59:43.761Z,3.75
2019-02-12T03:00:43.977Z,3.7
2019-02-12T03:01:43.952Z,3.7
2019-02-12T03:02:43.684Z,3.71
2019-02-12T03:03:43.651Z,3.8
2019-02-12T03:04:43.630Z,3.7
2019-02-12T03:05:43.623Z,3.7
2019-02-12T03:06:43.587Z,3.72
2019-02-12T03:07:43.562Z,3.72
2019-02-12T03:08:43.543Z,3.76
2019-02-12T03:09:43.524Z,3.71
2019-02-12T03:10:43.252Z,3.71
2019-02-12T03:11:43.756Z,3.75
2019-02-12T03:12:43.720Z,3.76
2019-02-12T03:13:43.698Z,3.76
2019-02-12T03:14:43.435Z,3.68
2019-02-12T03:15:43.418Z,3.7
2019-02-12T03:16:43.837Z,3.61
2019-02-12T03:17:43.641Z,3.72
2019-02-12T03:18:43.609Z,3.58
2019-02-12T03:19:43.569Z,3.54
2019-02-12T03:20:43.292Z,3.57
2019-02-12T03:21:43.264Z,3.6
2019-02-12T03:22:43.505Z,3.57
2019-02-12T03:23:43.515Z,3.6
2019-02-12T03:24:43.460Z,3.61
2019-02-12T03:25:42.918Z,3.58
2019-02-12T03:26:43.408Z,3.58
2019-02-12T03:27:43.339Z,3.61
2019-02-12T03:28:43.122Z,3.6
2019-02-12T03:29:42.832Z,3.6
2019-02-12T03:30:43.345Z,3.57
2019-02-12T03:31:43.326Z,3.57
2019-02-12T03:32:43.059Z,3.61
2019-02-12T03:33:43.063Z,3.53
2019-02-12T03:34:43.231Z,3.54
2019-02-12T03:35:43.214Z,3.61
2019-02-12T03:36:43.194Z,3.6
2019-02-12T03:37:42.914Z,3.57
2019-02-12T03:38:43.148Z,3.47
2019-02-12T03:39:42.867Z,3.43
2019-02-12T03:40:43.105Z,3.42
2019-02-12T03:41:42.842Z,3.44
2019-02-12T03:42:42.850Z,3.36
2019-02-12T03:43:43.046Z,3.33
2019-02-12T03:44:42.764Z,3.27
2019-02-12T03:45:43.034Z,3.28
2019-02-12T03:46:42.987Z,3.15
2019-02-12T03:47:42.965Z,3.21
2019-02-12T03:48:42.937Z,3.27
2019-02-12T03:49:42.905Z,3.28
2019-02-12T03:50:42.633Z,3.16
2019-02-12T03:51:42.355Z,3.15
2019-02-12T03:52:42.582Z,3.16
2019-02-12T03:53:42.563Z,3.2
2019-02-12T03:54:42.810Z,3.1
2019-02-12T03:55:42.538Z,3.16
2019-02-12T03:56:42.507Z,3.12
2019-02-12T03:57:42.828Z,3.16
2019-02-12T03:58:42.716Z,3.15
2019-02-12T03:59:42.432Z,3.15
2019-02-12T04:00:42.422Z,3.12
2019-02-12T04:01:42.656Z,3.23
2019-02-12T04:02:42.360Z,3.18
2019-02-12T04:03:42.158Z,3.1
2019-02-12T04:04:42.323Z,3.33
2019-02-12T04:05:42.305Z,3.33
2019-02-12T04:06:42.283Z,3.23
2019-02-12T04:07:42.517Z,3.21
2019-02-12T04:08:42.242Z,3.33
2019-02-12T04:09:42.464Z,3.28
2019-02-12T04:10:42.200Z,3.3
2019-02-12T04:11:42.181Z,3.31
2019-02-12T04:12:42.415Z,3.36
2019-02-12T04:13:42.125Z,3.4
2019-02-12T04:14:42.351Z,3.43
2019-02-12T04:15:42.097Z,3.42
2019-02-12T04:16:42.055Z,3.42
2019-02-12T04:17:42.320Z,3.49
2019-02-12T04:18:42.042Z,3.5
2019-02-12T04:19:41.990Z,3.53
2019-02-12T04:20:42.238Z,3.47
2019-02-12T04:21:41.944Z,3.46
2019-02-12T04:22:41.930Z,3.52
2019-02-12T04:23:42.165Z,3.46
2019-02-12T04:24:42.140Z,3.49
2019-02-12T04:25:41.608Z,3.43
2019-02-12T04:26:41.585Z,3.47
2019-02-12T04:27:41.825Z,3.52
2019-02-12T04:28:42.047Z,3.4
2019-02-12T04:29:41.771Z,3.39
2019-02-12T04:30:41.762Z,3.42
2019-02-12T04:31:41.749Z,3.44
2019-02-12T04:32:41.969Z,3.47
2019-02-12T04:33:41.943Z,3.44
2019-02-12T04:34:41.669Z,3.42
2019-02-12T04:35:41.634Z,3.43
2019-02-12T04:36:41.881Z,3.44
2019-02-12T04:37:41.630Z,3.36
2019-02-12T04:38:41.321Z,3.31
2019-02-12T04:39:41.816Z,3.4
2019-02-12T04:40:41.792Z,3.23
2019-02-12T04:41:41.785Z,3.27
2019-02-12T04:42:41.737Z,3.27
2019-02-12T04:43:41.721Z,3.23
2019-02-12T04:44:41.704Z,3.28
2019-02-12T04:45:41.431Z,3.2
2019-02-12T04:46:41.214Z,3.16
2019-02-12T04:47:41.683Z,3.16
2019-02-12T04:48:41.104Z,3.12
2019-02-12T04:49:41.378Z,3.1
2019-02-12T04:50:41.055Z,3.2
2019-02-12T04:51:41.563Z,3.12
2019-02-12T04:52:41.272Z,3.07
2019-02-12T04:53:41.246Z,3.09
2019-02-12T04:54:41.482Z,3.06
2019-02-12T04:55:41.473Z,2.97
2019-02-12T04:56:41.443Z,3.02
2019-02-12T04:57:41.159Z,3.05
2019-02-12T04:58:40.875Z,3
2019-02-12T04:59:41.109Z,2.95
2019-02-12T05:00:41.340Z,2.98
2019-02-12T05:01:41.089Z,2.88
2019-02-12T05:02:41.302Z,2.85
2019-02-12T05:03:40.800Z,2.85
2019-02-12T05:04:41.001Z,2.85
2019-02-12T05:05:41.233Z,2.91
2019-02-12T05:06:41.214Z,2.91
2019-02-12T05:07:41.125Z,2.81
2019-02-12T05:08:40.914Z,2.87
2019-02-12T05:09:41.143Z,2.77
2019-02-12T05:10:40.869Z,2.79
2019-02-12T05:11:40.847Z,2.77
2019-02-12T05:12:41.078Z,2.81
2019-02-12T05:13:40.806Z,2.76
2019-02-12T05:14:40.781Z,2.82
2019-02-12T05:15:40.761Z,2.73
2019-02-12T05:16:40.989Z,2.71
2019-02-12T05:17:40.721Z,2.77
2019-02-12T05:18:40.948Z,2.77
2019-02-12T05:19:40.924Z,2.81
2019-02-12T05:20:40.663Z,2.76
2019-02-12T05:21:40.640Z,2.77
2019-02-12T05:22:48.266Z,2.76
2019-02-12T05:23:40.319Z,2.79
2019-02-12T05:24:40.299Z,2.79
2019-02-12T05:25:40.534Z,2.82
2019-02-12T05:26:40.765Z,2.79
2019-02-12T05:27:40.968Z,2.85
2019-02-12T05:28:40.731Z,2.87
2019-02-12T05:29:40.443Z,2.91
2019-02-12T05:30:40.432Z,2.94
2019-02-12T05:31:40.154Z,2.88
2019-02-12T05:32:40.377Z,2.89
2019-02-12T05:33:40.362Z,2.91
2019-02-12T05:34:40.591Z,2.97
2019-02-12T05:35:40.564Z,2.92
2019-02-12T05:36:40.331Z,3.05
2019-02-12T05:37:40.292Z,3.02
2019-02-12T05:38:40.244Z,3
2019-02-12T05:39:40.476Z,3.03
2019-02-12T05:40:40.203Z,2.97
2019-02-12T05:41:40.464Z,3.02
2019-02-12T05:42:40.474Z,2.97
2019-02-12T05:43:40.143Z,3.03
2019-02-12T05:44:40.402Z,3.03
2019-02-12T05:45:40.087Z,3.13
2019-02-12T05:46:40.317Z,3.05
2019-02-12T05:47:40.302Z,3.03
2019-02-12T05:48:40.072Z,3.05
2019-02-12T05:49:40.000Z,2.95
2019-02-12T05:50:40.248Z,3.05
2019-02-12T05:51:40.220Z,3
2019-02-12T05:52:40.186Z,2.98
2019-02-12T05:53:40.172Z,2.92
2019-02-12T05:54:39.894Z,3.05
2019-02-12T05:55:39.866Z,2.95
2019-02-12T05:56:40.098Z,3.03
2019-02-12T05:57:40.078Z,2.97
2019-02-12T05:58:40.055Z,3
2019-02-12T05:59:39.774Z,2.95
2019-02-12T06:00:40.037Z,2.98
2019-02-12T06:01:39.751Z,3.06
2019-02-12T06:02:39.726Z,3.03
2019-02-12T06:03:39.690Z,2.95
2019-02-12T06:04:39.660Z,3
2019-02-12T06:05:39.406Z,3.05
2019-02-12T06:06:39.631Z,3
2019-02-12T06:07:39.599Z,2.97
2019-02-12T06:08:39.596Z,3.02
2019-02-12T06:09:39.812Z,2.95
2019-02-12T06:10:39.537Z,3
2019-02-12T06:11:39.777Z,3.02
2019-02-12T06:12:39.241Z,2.97
2019-02-12T06:13:39.730Z,3
2019-02-12T06:14:39.729Z,3.02
2019-02-12T06:15:39.433Z,2.84
2019-02-12T06:16:39.413Z,3.05
2019-02-12T06:17:39.384Z,2.95
2019-02-12T06:18:39.370Z,3.03
2019-02-12T06:19:39.336Z,3
2019-02-12T06:20:39.313Z,3.05
2019-02-12T06:21:39.306Z,3.05
2019-02-12T06:22:39.526Z,2.97
2019-02-12T06:23:39.504Z,3
2019-02-12T06:24:39.284Z,3
2019-02-12T06:25:39.214Z,2.95
2019-02-12T06:26:39.441Z,3
2019-02-12T06:27:39.175Z,3
2019-02-12T06:28:39.149Z,2.98
2019-02-12T06:29:39.220Z,3
2019-02-12T06:30:39.129Z,2.98
2019-02-12T06:31:39.075Z,2.98
2019-02-12T06:32:39.301Z,2.97
2019-02-12T06:33:39.285Z,3.02
2019-02-12T06:34:39.267Z,3.03
2019-02-12T06:35:38.986Z,3
2019-02-12T06:36:38.958Z,2.95
2019-02-12T06:37:38.941Z,2.88
2019-02-12T06:38:38.665Z,2.97
2019-02-12T06:39:38.889Z,2.94
2019-02-12T06:40:38.869Z,2.91
2019-02-12T06:41:39.141Z,2.89
2019-02-12T06:42:39.103Z,2.91
2019-02-12T06:43:38.810Z,2.91
2019-02-12T06:44:38.792Z,2.92
2019-02-12T06:45:39.045Z,2.87
2019-02-12T06:46:38.741Z,2.88
2019-02-12T06:47:38.975Z,2.89
2019-02-12T06:48:38.708Z,2.94
2019-02-12T06:49:38.931Z,2.95
2019-02-12T06:50:38.905Z,2.97
2019-02-12T06:51:38.633Z,2.95
2019-02-12T06:52:38.867Z,2.97
2019-02-12T06:53:38.841Z,3.06
2019-02-12T06:54:38.564Z,2.97
2019-02-12T06:55:38.542Z,3.06
2019-02-12T06:56:38.515Z,3.07
2019-02-12T06:57:39.389Z,3.1
2019-02-12T06:58:38.488Z,3.12
2019-02-12T06:59:38.704Z,3.06
2019-02-12T07:00:38.453Z,3.09
2019-02-12T07:01:38.413Z,3.07
2019-02-12T07:02:38.644Z,3.06
2019-02-12T07:03:38.364Z,3.1
2019-02-12T07:04:38.113Z,3.15
2019-02-12T07:05:38.590Z,3.13
2019-02-12T07:06:38.597Z,3.15
2019-02-12T07:07:38.530Z,3.2
2019-02-12T07:08:38.263Z,3.15
2019-02-12T07:09:38.500Z,3.12
2019-02-12T07:10:38.222Z,3.13
2019-02-12T07:11:38.452Z,3.15
2019-02-12T07:12:38.189Z,3.2
2019-02-12T07:13:38.163Z,3.13
2019-02-12T07:14:38.220Z,3.16
2019-02-12T07:15:38.157Z,3.23
2019-02-12T07:16:38.341Z,3.23
2019-02-12T07:17:38.326Z,3.33
2019-02-12T07:18:38.040Z,3.3
2019-02-12T07:19:38.305Z,3.24
2019-02-12T07:20:38.252Z,3.23
2019-02-12T07:21:38.043Z,3.24
2019-02-12T07:22:37.952Z,3.33
2019-02-12T07:23:37.970Z,3.25
2019-02-12T07:24:37.932Z,3.42
2019-02-12T07:25:37.900Z,3.36
2019-02-12T07:26:37.865Z,3.4
2019-02-12T07:27:38.044Z,3.39
2019-02-12T07:28:37.821Z,3.4
2019-02-12T07:29:38.050Z,3.43
2019-02-12T07:30:37.773Z,3.49
2019-02-12T07:31:39.604Z,3.43
2019-02-12T07:32:37.789Z,3.5
2019-02-12T07:33:37.729Z,3.5
2019-02-12T07:34:37.726Z,3.47
2019-02-12T07:35:37.929Z,3.58
2019-02-12T07:36:37.673Z,3.61
2019-02-12T07:37:37.915Z,3.61
2019-02-12T07:38:37.865Z,3.6
2019-02-12T07:39:37.341Z,3.57
2019-02-12T07:40:37.557Z,3.58
2019-02-12T07:41:37.807Z,3.54
2019-02-12T07:42:37.271Z,3.61
2019-02-12T07:43:37.236Z,3.68
2019-02-12T07:44:37.218Z,3.62
2019-02-12T07:45:37.244Z,3.61
2019-02-12T07:46:37.444Z,3.68
2019-02-12T07:47:37.160Z,3.76
2019-02-12T07:48:37.381Z,3.75
2019-02-12T07:49:37.379Z,3.7
2019-02-12T07:50:37.645Z,3.76
2019-02-12T07:51:37.347Z,3.75
2019-02-12T07:52:37.555Z,3.79
2019-02-12T07:53:37.538Z,3.79
2019-02-12T07:54:37.527Z,3.8
2019-02-12T07:55:37.000Z,3.86
2019-02-12T07:56:37.229Z,3.88
2019-02-12T07:57:37.194Z,3.89
2019-02-12T07:58:37.216Z,3.96
2019-02-12T07:59:37.161Z,3.96
2019-02-12T08:00:37.127Z,4
2019-02-12T08:01:36.854Z,4.06
2019-02-12T08:02:38.470Z,4.01
2019-02-12T08:03:37.319Z,4.06
2019-02-12T08:04:36.806Z,4.1
2019-02-12T08:05:37.022Z,4
2019-02-12T08:06:36.772Z,4.06
2019-02-12T08:07:36.976Z,4.12
2019-02-12T08:08:37.226Z,4.06
2019-02-12T08:09:36.953Z,4.16
2019-02-12T08:10:36.928Z,4.1
2019-02-12T08:11:37.161Z,4.07
2019-02-12T08:12:36.883Z,4.22
2019-02-12T08:13:36.855Z,4.19
2019-02-12T08:14:37.125Z,4.19
2019-02-12T08:15:37.088Z,4.26
2019-02-12T08:16:36.791Z,4.19
2019-02-12T08:17:36.786Z,4.29
2019-02-12T08:18:36.756Z,4.32
2019-02-12T08:19:36.732Z,4.24
2019-02-12T08:20:36.700Z,4.32
2019-02-12T08:21:36.681Z,4.39
2019-02-12T08:22:36.675Z,4.37
2019-02-12T08:23:46.038Z,4.34
2019-02-12T08:24:36.370Z,4.33
2019-02-12T08:25:36.609Z,4.36
2019-02-12T08:26:36.581Z,4.36
2019-02-12T08:27:36.566Z,4.43
2019-02-12T08:28:36.536Z,4.43
2019-02-12T08:29:36.770Z,4.4
2019-02-12T08:30:36.508Z,4.42
2019-02-12T08:31:36.472Z,4.46
2019-02-12T08:32:36.465Z,4.42
2019-02-12T08:33:36.691Z,4.5
2019-02-12T08:34:36.691Z,4.51
2019-02-12T08:35:36.639Z,4.51
2019-02-12T08:36:36.361Z,4.54
2019-02-12T08:37:36.903Z,4.44
2019-02-12T08:38:36.341Z,4.51
2019-02-12T08:39:36.350Z,4.52
2019-02-12T08:40:36.028Z,4.52
2019-02-12T08:41:36.532Z,4.57
2019-02-12T08:42:36.295Z,4.57
2019-02-12T08:43:36.231Z,4.61
2019-02-12T08:44:36.217Z,4.64
2019-02-12T08:45:36.218Z,4.62
2019-02-12T08:46:36.167Z,4.65
2019-02-12T08:47:36.160Z,4.58
2019-02-12T08:48:36.409Z,4.65
2019-02-12T08:49:36.363Z,4.61
2019-02-12T08:50:35.826Z,4.72
2019-02-12T08:51:36.324Z,4.73
2019-02-12T08:52:36.032Z,4.7
2019-02-12T08:53:36.270Z,4.64
2019-02-12T08:54:36.000Z,4.75
2019-02-12T08:55:36.854Z,4.61
2019-02-12T08:56:36.209Z,4.67
2019-02-12T08:57:35.931Z,4.77
2019-02-12T08:58:35.915Z,4.88
2019-02-12T08:59:36.161Z,4.83
2019-02-12T09:00:36.123Z,4.86
2019-02-12T09:01:36.114Z,4.92
2019-02-12T09:02:35.826Z,4.79
2019-02-12T09:03:35.817Z,4.8
2019-02-12T09:04:35.831Z,4.89
2019-02-12T09:05:36.015Z,4.86
2019-02-12T09:06:36.035Z,4.89
2019-02-12T09:07:35.981Z,4.92
2019-02-12T09:08:35.727Z,4.92
2019-02-12T09:09:35.433Z,4.98
2019-02-12T09:10:35.659Z,4.96
2019-02-12T09:11:35.398Z,5.02
2019-02-12T09:12:35.616Z,4.99
2019-02-12T09:13:35.851Z,5.02
2019-02-12T09:14:35.575Z,5.05
2019-02-12T09:15:35.816Z,5.12
2019-02-12T09:16:35.284Z,5.09
2019-02-12T09:17:35.261Z,5.13
2019-02-12T09:18:35.752Z,5.14
2019-02-12T09:19:35.474Z,5.12
2019-02-12T09:20:35.711Z,5.27
2019-02-12T09:21:35.699Z,5.25
2019-02-12T09:22:35.533Z,5.2
2019-02-12T09:23:35.391Z,5.27
2019-02-12T09:24:35.135Z,5.3
2019-02-12T09:25:35.094Z,5.37
2019-02-12T09:26:35.591Z,5.43
2019-02-12T09:27:35.256Z,5.43
2019-02-12T09:28:35.293Z,5.38
2019-02-12T09:29:35.285Z,5.53
2019-02-12T09:30:35.254Z,5.57
2019-02-12T09:31:35.223Z,5.59
2019-02-12T09:32:35.459Z,5.7
2019-02-12T09:33:35.195Z,5.81
2019-02-12T09:34:35.185Z,5.71
2019-02-12T09:35:34.903Z,5.64
2019-02-12T09:36:35.376Z,5.81
2019-02-12T09:37:36.235Z,5.88
2019-02-12T09:38:35.099Z,5.85
2019-02-12T09:39:35.317Z,5.88
2019-02-12T09:40:34.796Z,5.96
2019-02-12T09:41:34.767Z,5.95
2019-02-12T09:42:35.257Z,5.95
2019-02-12T09:43:34.728Z,6.07
2019-02-12T09:44:35.223Z,5.96
2019-02-12T09:45:35.196Z,5.92
2019-02-12T09:46:35.180Z,5.95
2019-02-12T09:47:34.904Z,5.86
2019-02-12T09:48:34.887Z,5.78
2019-02-12T09:49:35.118Z,5.85
2019-02-12T09:50:34.862Z,5.73
2019-02-12T09:51:34.826Z,5.68
2019-02-12T09:52:34.820Z,5.74
2019-02-12T09:53:34.780Z,5.75
2019-02-12T09:54:35.042Z,5.82
2019-02-12T09:55:34.771Z,5.75
2019-02-12T09:56:35.008Z,5.82
2019-02-12T09:57:35.036Z,5.81
2019-02-12T09:58:34.491Z,5.71
2019-02-12T09:59:34.919Z,5.82
2019-02-12T10:00:34.646Z,5.88
2019-02-12T10:01:34.894Z,5.89
2019-02-12T10:02:34.889Z,5.95
2019-02-12T10:03:34.597Z,5.89
2019-02-12T10:04:34.584Z,6.03
2019-02-12T10:05:34.810Z,5.92
2019-02-12T10:06:34.562Z,5.88
2019-02-12T10:07:34.723Z,5.96
2019-02-12T10:08:34.739Z,6.03
2019-02-12T10:09:34.463Z,6
2019-02-12T10:10:34.711Z,5.91
2019-02-12T10:11:34.678Z,5.95
2019-02-12T10:12:34.411Z,5.96
2019-02-12T10:13:34.180Z,5.91
2019-02-12T10:14:34.627Z,5.85
2019-02-12T10:15:34.614Z,5.95
2019-02-12T10:16:34.607Z,5.86
2019-02-12T10:17:34.565Z,5.88
2019-02-12T10:18:34.562Z,5.86
2019-02-12T10:19:34.584Z,5.86
2019-02-12T10:20:34.249Z,5.83
2019-02-12T10:21:34.483Z,5.89
2019-02-12T10:22:34.270Z,6.03
2019-02-12T10:23:34.468Z,6.06
2019-02-12T10:24:34.170Z,5.95
2019-02-12T10:25:33.958Z,6.07
2019-02-12T10:26:34.138Z,6.14
2019-02-12T10:27:34.137Z,6.09
2019-02-12T10:28:34.099Z,6.22
2019-02-12T10:29:34.325Z,6.22
2019-02-12T10:30:34.315Z,6.32
2019-02-12T10:31:34.286Z,6.36
2019-02-12T10:32:34.015Z,6.46
2019-02-12T10:33:33.795Z,6.58
2019-02-12T10:34:34.262Z,6.62
2019-02-12T10:35:34.210Z,6.77
2019-02-12T10:36:33.939Z,6.91
2019-02-12T10:37:33.915Z,7.08
2019-02-12T10:38:34.152Z,7.4
2019-02-12T10:39:33.886Z,7.9
2019-02-12T10:40:34.135Z,8.28
2019-02-12T10:41:34.141Z,8.53
2019-02-12T10:42:33.831Z,8.44
2019-02-12T10:43:34.070Z,8.54
2019-02-12T10:44:33.795Z,8.63
2019-02-12T10:45:34.037Z,8.6
2019-02-12T10:46:33.786Z,8.42
2019-02-12T10:47:34.008Z,8.35
2019-02-12T10:48:33.716Z,8.22
2019-02-12T10:49:33.959Z,8.07
2019-02-12T10:50:33.695Z,8.04
2019-02-12T10:51:33.678Z,7.93
2019-02-12T10:52:33.909Z,7.85
2019-02-12T10:53:34.232Z,7.85
2019-02-12T10:54:33.620Z,7.9
2019-02-12T10:55:33.873Z,7.89
2019-02-12T10:56:33.585Z,7.9
2019-02-12T10:57:33.576Z,7.87
2019-02-12T10:58:33.570Z,8.08
2019-02-12T10:59:33.276Z,8.08
2019-02-12T11:00:33.773Z,8.12
2019-02-12T11:01:33.262Z,8.33
2019-02-12T11:02:33.735Z,8.39
2019-02-12T11:03:33.207Z,8.55
2019-02-12T11:04:33.703Z,8.51
2019-02-12T11:05:33.691Z,8.48
2019-02-12T11:06:33.410Z,8.45
2019-02-12T11:07:33.399Z,8.4
2019-02-12T11:08:33.634Z,8.58
2019-02-12T11:09:33.778Z,8.55
2019-02-12T11:10:33.348Z,8.75
2019-02-12T11:11:33.329Z,8.83
2019-02-12T11:12:33.058Z,8.73
2019-02-12T11:13:33.553Z,8.72
2019-02-12T11:14:33.307Z,8.6
2019-02-12T11:15:33.267Z,8.66
2019-02-12T11:16:33.256Z,8.53
2019-02-12T11:17:33.482Z,8.37
2019-02-12T11:18:33.471Z,8.44
2019-02-12T11:19:33.204Z,8.53
2019-02-12T11:20:33.436Z,8.53
2019-02-12T11:21:33.191Z,8.72
2019-02-12T11:22:33.157Z,8.71
2019-02-12T11:23:33.394Z,8.72
2019-02-12T11:24:40.412Z,8.75
2019-02-12T11:25:33.356Z,8.63
2019-02-12T11:26:33.342Z,8.54
2019-02-12T11:27:33.332Z,8.62
2019-02-12T11:28:33.058Z,8.66
2019-02-12T11:29:33.298Z,8.88
2019-02-12T11:30:33.061Z,8.84
2019-02-12T11:31:33.257Z,8.87
2019-02-12T11:32:33.256Z,8.94
2019-02-12T11:33:32.724Z,9.28
2019-02-12T11:34:32.964Z,9.21
2019-02-12T11:35:33.218Z,9.01
2019-02-12T11:36:33.185Z,9.12
2019-02-12T11:37:33.173Z,9.18
2019-02-12T11:38:32.920Z,9.15
2019-02-12T11:39:33.144Z,9.18
2019-02-12T11:40:32.864Z,9.18
2019-02-12T11:41:32.876Z,9.32
2019-02-12T11:42:33.101Z,9.25
2019-02-12T11:43:32.570Z,9.25
2019-02-12T11:44:33.058Z,9.34
2019-02-12T11:45:33.043Z,9.18
2019-02-12T11:46:33.022Z,9.16
2019-02-12T11:47:32.764Z,9.24
2019-02-12T11:48:32.744Z,9.12
2019-02-12T11:49:32.984Z,9.25
2019-02-12T11:50:32.709Z,9.27
2019-02-12T11:51:32.961Z,9.24
2019-02-12T11:52:32.952Z,9.2
2019-02-12T11:53:32.705Z,9.2
2019-02-12T11:54:32.900Z,9.32
2019-02-12T11:55:32.643Z,9.42
2019-02-12T11:56:32.937Z,9.56
2019-02-12T11:57:32.612Z,9.56
2019-02-12T11:58:32.845Z,9.58
2019-02-12T11:59:32.583Z,9.61
2019-02-12T12:00:32.822Z,9.58
2019-02-12T12:01:32.588Z,9.42
2019-02-12T12:02:32.780Z,9.5
2019-02-12T12:03:32.520Z,9.31
2019-02-12T12:04:32.747Z,9.23
2019-02-12T12:05:32.750Z,9.25
2019-02-12T12:06:32.219Z,9.3
2019-02-12T12:07:32.713Z,9.25
2019-02-12T12:08:32.215Z,9.15
2019-02-12T12:09:32.723Z,9.24
2019-02-12T12:10:32.176Z,8.99
2019-02-12T12:11:32.644Z,9.04
2019-02-12T12:12:32.630Z,8.93
2019-02-12T12:13:32.355Z,9.04
2019-02-12T12:14:32.346Z,9.13
2019-02-12T12:15:32.331Z,9.23
2019-02-12T12:16:32.314Z,9.24
2019-02-12T12:17:32.552Z,9.35
2019-02-12T12:18:32.286Z,9.45
2019-02-12T12:19:32.529Z,9.46
2019-02-12T12:20:32.258Z,9.39
2019-02-12T12:21:32.241Z,9.38
2019-02-12T12:22:32.220Z,9.43
2019-02-12T12:23:32.240Z,9.38
2019-02-12T12:24:32.193Z,9.38
2019-02-12T12:25:32.179Z,9.4
2019-02-12T12:26:32.156Z,9.43
2019-02-12T12:27:32.138Z,9.3
2019-02-12T12:28:31.871Z,9.25
2019-02-12T12:29:32.119Z,9.28
2019-02-12T12:30:32.096Z,9.28
2019-02-12T12:31:32.349Z,9.12
2019-02-12T12:32:32.063Z,9.09
2019-02-12T12:33:32.086Z,8.99
2019-02-12T12:34:32.034Z,8.88
2019-02-12T12:35:32.272Z,8.75
2019-02-12T12:36:32.260Z,8.83
2019-02-12T12:37:32.246Z,8.88
2019-02-12T12:38:31.716Z,8.73
2019-02-12T12:39:32.001Z,8.81
2019-02-12T12:40:31.686Z,8.75
2019-02-12T12:41:31.666Z,8.73
2019-02-12T12:42:31.651Z,8.63
2019-02-12T12:43:32.332Z,8.63
2019-02-12T12:44:31.884Z,8.57
2019-02-12T12:45:32.129Z,8.62
2019-02-12T12:46:31.843Z,8.58
2019-02-12T12:47:31.574Z,8.68
2019-02-12T12:48:32.058Z,8.69
2019-02-12T12:49:32.257Z,8.69
2019-02-12T12:50:31.858Z,8.68
2019-02-12T12:51:31.563Z,8.79
2019-02-12T12:52:31.732Z,8.72
2019-02-12T12:53:31.983Z,8.71
2019-02-12T12:54:31.704Z,8.83
2019-02-12T12:55:31.950Z,8.81
2019-02-12T12:56:31.430Z,8.88
2019-02-12T12:57:31.674Z,8.73
2019-02-12T12:58:31.637Z,8.69
2019-02-12T12:59:31.988Z,8.63
2019-02-12T13:00:31.865Z,8.71
2019-02-12T13:01:31.828Z,8.72
2019-02-12T13:02:31.838Z,8.63
2019-02-12T13:03:31.800Z,8.66
2019-02-12T13:04:31.524Z,8.58
2019-02-12T13:05:31.789Z,8.54
2019-02-12T13:06:31.801Z,8.53
2019-02-12T13:07:31.732Z,8.54
2019-02-12T13:08:31.467Z,8.57
2019-02-12T13:09:31.689Z,8.53
2019-02-12T13:10:31.424Z,8.53
2019-02-12T13:11:31.667Z,8.39
2019-02-12T13:12:32.778Z,8.44
2019-02-12T13:13:31.122Z,8.42
2019-02-12T13:14:31.181Z,8.36
2019-02-12T13:15:31.339Z,8.29
2019-02-12T13:16:31.315Z,8.36
2019-02-12T13:17:31.295Z,8.2
2019-02-12T13:18:31.303Z,8.22
2019-02-12T13:19:31.517Z,8.29
2019-02-12T13:20:31.494Z,8.2
2019-02-12T13:21:31.041Z,8.2
2019-02-12T13:22:30.950Z,8.28